Terminal Aerodrome Forecast
Issued by NWS Mt. Holly, NJ

Home | Current Version | Previous Version | Text Only | Print | Product List | Glossary On
Versions: 1 2 3 4 5 6 7 8 9 10 11 12 13 14 15 16 17 18 19 20
000
FTAK31 PANC 310728 AAA
TAFABE
TAF AMD
PABE 310728Z 3107/0106 18015G24KT 4SM -RA BKN006 OVC012
      TEMPO 3107/3110 1SM -RA BR OVC006
     FM311000 19008KT 5SM -RA SCT008 BKN015 OVC025
     FM311500 11007KT 6SM -RA BR SCT010 BKN025 OVC050
     FM312200 04005KT P6SM -SHRA SCT025 BKN050=

USA.gov is the U.S. government's official web portal to all federal, state and local government web resources and services.